Flight Track Log - Related Links

Times and Time Zones

All times are in EDT time to prevent confusion due to time zone crossing. See the AFR6228 flight status page for this flight to view local times or setup timezone preferences in your user account.

Time Position Orientation Groundspeed Altitude Reporting Facility
EDT Latitude Longitude Course Direction KTS MPH feet Rate Location/Type
Tue 05:57:00 AM 47.9798 3.1470 145° Southeast  Level Estimated
Tue 05:58:00 AM 47.9174 3.2116 145° Southeast  Level Estimated
Tue 05:59:00 AM 47.8550 3.2760 145° Southeast  Level Estimated
Tue 06:00:00 AM 47.7926 3.3403 145° Southeast  Level Estimated
Tue 06:01:00 AM 47.7301 3.4044 145° Southeast  Level Estimated
Tue 06:02:00 AM 47.6676 3.4684 145° Southeast  Level Estimated
Tue 06:03:00 AM 47.6051 3.5322 145° Southeast  Level Estimated
Tue 06:04:00 AM 47.5425 3.5959 146° Southeast  Level Estimated
Tue 06:05:00 AM 47.4799 3.6594 146° Southeast  Level Estimated
Tue 06:06:00 AM 47.4172 3.7228 146° Southeast  Level Estimated
Tue 06:07:00 AM 47.3545 3.7860 146° Southeast  Level Estimated
Tue 06:08:00 AM 47.2918 3.8491 146° Southeast  Level Estimated
Tue 06:09:00 AM 47.2291 3.9120 146° Southeast  Level Estimated
Tue 06:10:00 AM 47.1663 3.9748 146° Southeast  Level Estimated
Tue 06:11:00 AM 47.1035 4.0374 146° Southeast  Level Estimated
Tue 06:12:00 AM 47.0406 4.0999 146° Southeast  Level Estimated
Tue 06:13:00 AM 46.9777 4.1622 146° Southeast  Level Estimated
Tue 06:14:00 AM 46.9148 4.2244 146° Southeast  Level Estimated
Tue 06:15:00 AM 46.8518 4.2864 146° Southeast  Level Estimated
Tue 06:16:00 AM 46.7888 4.3483 146° Southeast  Level Estimated
Tue 06:17:00 AM 46.7258 4.4100 146° Southeast  Level Estimated
Tue 06:18:00 AM 46.6628 4.4716 146° Southeast  Level Estimated
Tue 06:19:00 AM 46.5997 4.5331 146° Southeast  Level Estimated
Tue 06:20:00 AM 46.5366 4.5944 146° Southeast  Level Estimated
Tue 06:21:00 AM 46.4734 4.6556 146° Southeast  Level Estimated
Tue 06:22:00 AM 46.4102 4.7166 146° Southeast  Level Estimated
Tue 06:23:00 AM 46.3470 4.7775 146° Southeast  Level Estimated
Tue 06:24:00 AM 46.2837 4.8382 146° Southeast  Level Estimated
Tue 06:25:00 AM 46.2163 4.9029 146° Southeast  Level Estimated
Tue 06:26:00 AM 46.1487 4.9674 147° Southeast  Level Estimated
Tue 06:27:00 AM 46.0811 5.0317 147° Southeast  Level Estimated
Tue 06:28:00 AM 46.0135 5.0958 147° Southeast  Level Estimated
Tue 06:29:00 AM 45.9459 5.1599 147° Southeast  Level Estimated
Tue 06:30:00 AM 45.8782 5.2237 147° Southeast  Level Estimated
Tue 06:31:00 AM 45.8105 5.2874 147° Southeast  Level Estimated
Tue 06:32:00 AM 45.7427 5.3510 147° Southeast  Level Estimated
Tue 06:33:00 AM 45.6749 5.4144 147° Southeast  Level Estimated
Tue 06:34:00 AM 45.6071 5.4776 147° Southeast  Level Estimated
Tue 06:35:00 AM 45.5392 5.5407 147° Southeast  Level Estimated
Tue 06:36:00 AM 45.4714 5.6036 147° Southeast  Level Estimated
Tue 06:37:00 AM 45.4034 5.6664 147° Southeast  Level Estimated
Tue 06:38:00 AM 45.3355 5.7290 147° Southeast  Level Estimated
Tue 06:39:00 AM 45.2675 5.7915 147° Southeast  Level Estimated
Tue 06:40:00 AM 45.1994 5.8538 147° Southeast  Level Estimated
Tue 06:41:00 AM 45.1314 5.9160 147° Southeast  Level Estimated
Tue 06:42:00 AM 45.0633 5.9781 147° Southeast  Level Estimated
Tue 06:43:00 AM 44.9951 6.0399 147° Southeast  Level Estimated
Tue 06:44:00 AM 44.9270 6.1017 147° Southeast  Level Estimated
Tue 06:45:00 AM 44.8588 6.1633 147° Southeast  Level Estimated
Tue 06:46:00 AM 44.7905 6.2247 147° Southeast  Level Estimated
Tue 06:47:00 AM 44.7223 6.2860 147° Southeast  Level Estimated
Tue 06:48:00 AM 44.6540 6.3472 147° Southeast  Level Estimated
Tue 06:49:00 AM 44.5856 6.4082 148° Southeast  Level Estimated
Tue 06:50:00 AM 44.5173 6.4691 148° Southeast  Level Estimated
Tue 06:51:00 AM 44.4489 6.5298 148° Southeast  Level Estimated
Tue 06:52:00 AM 44.3805 6.5904 148° Southeast  Level Estimated
Tue 06:53:00 AM 44.3120 6.6508 148° Southeast  Level Estimated
Tue 06:54:00 AM 44.2435 6.7111 148° Southeast  Level Estimated
Tue 06:55:00 AM 44.1750 6.7713 148° Southeast  Level Estimated
Tue 06:56:00 AM 44.1064 6.8313 148° Southeast  Level Estimated
Tue 06:57:00 AM 44.0379 6.8912 148° Southeast  Level Estimated
Tue 06:58:00 AM 43.9692 6.9509 148° Southeast  Level Estimated
Tue 06:59:00 AM 43.9006 7.0105 148° Southeast  Level Estimated
Tue 07:00:00 AM 43.8280 7.0733 148° Southeast  Level Estimated
Tue 07:01:00 AM 43.7555 7.1360 148° Southeast  Level Estimated
Tue 07:02:00 AM 43.6828 7.1985 148° Southeast  Level Estimated
Tue 07:03:00 AM 43.6607 7.2176 148° Southeast  Level Estimated
Tue 07:04:00 AM 43.6607 7.2176 144° Southeast  Level Estimated
Tue 07:05:00 AM 43.6607 7.2176 144° Southeast  Level Estimated
Tue 07:06:00 AM 43.6607 7.2176 144° Southeast  Level Estimated
Tue 07:07:00 AM 43.6607 7.2176 144° Southeast  Level Estimated
Tue 07:08:00 AM 43.6607 7.2176 144° Southeast  Level Estimated
Tue 07:09:00 AM 43.6607 7.2176 144° Southeast  Level Estimated
Tue 07:10:00 AM 43.6607 7.2176 144° Southeast  Level Estimated
Tue 07:11:00 AM 43.6607 7.2176 144° Southeast  Level Estimated
Tue 07:12:00 AM 43.6607 7.2176 144° Southeast  Level Estimated

Login

Don't have an account? Register now (free) for customized features, flight alerts, and more!